Terminal Aerodrome Forecast
Issued by NWS

Home | Current Version | Previous Version | Text Only | Print | Product List | Glossary On
Versions: 1 2 3 4 5 6 7 8 9 10 11 12 13 14
000
FTUS41 KBTV 271122
TAFMSS
TAF
KMSS 271122Z 2712/2812 VRB03KT P6SM BKN080
     FM271400 23008KT P6SM SCT080
     FM271900 23008KT P6SM SCT070
     FM280000 VRB03KT P6SM BKN060=

USA.gov is the U.S. government's official web portal to all federal, state and local government web resources and services.